sensor_id;sensor_type;location;lat;lon;timestamp;pressure;altitude;pressure_sealevel;temperature;humidity
53340;BME280;46212;50.258;19.062;2022-07-23T00:00:00;98550.88;;;20.85;68.75
53340;BME280;46212;50.258;19.062;2022-07-23T00:02:25;98556.97;;;20.89;68.60
53340;BME280;46212;50.258;19.062;2022-07-23T00:04:50;98556.78;;;20.81;69.27
53340;BME280;46212;50.258;19.062;2022-07-23T00:07:15;98561.53;;;20.67;69.95
53340;BME280;46212;50.258;19.062;2022-07-23T00:09:40;98557.56;;;20.57;70.06
53340;BME280;46212;50.258;19.062;2022-07-23T00:12:06;98563.81;;;20.39;72.43
53340;BME280;46212;50.258;19.062;2022-07-23T00:14:31;98558.88;;;20.51;71.39
53340;BME280;46212;50.258;19.062;2022-07-23T00:16:56;98556.78;;;20.57;70.64
53340;BME280;46212;50.258;19.062;2022-07-23T00:19:22;98557.19;;;20.66;70.17
53340;BME280;46212;50.258;19.062;2022-07-23T00:21:47;98561.53;;;20.67;70.65
53340;BME280;46212;50.258;19.062;2022-07-23T00:24:12;98562.53;;;20.70;70.34
53340;BME280;46212;50.258;19.062;2022-07-23T00:26:37;98552.34;;;20.67;69.84
53340;BME280;46212;50.258;19.062;2022-07-23T00:29:03;98556.78;;;20.57;70.18
53340;BME280;46212;50.258;19.062;2022-07-23T00:31:28;98552.50;;;20.50;69.75
53340;BME280;46212;50.258;19.062;2022-07-23T00:33:53;98554.13;;;20.40;70.08
53340;BME280;46212;50.258;19.062;2022-07-23T00:36:21;98551.31;;;20.40;70.02
53340;BME280;46212;50.258;19.062;2022-07-23T00:38:48;98553.03;;;20.49;69.56
53340;BME280;46212;50.258;19.062;2022-07-23T00:41:13;98551.31;;;20.40;69.58
53340;BME280;46212;50.258;19.062;2022-07-23T00:43:38;98556.75;;;20.33;69.51
53340;BME280;46212;50.258;19.062;2022-07-23T00:46:04;98552.22;;;20.24;70.42
53340;BME280;46212;50.258;19.062;2022-07-23T00:48:29;98558.56;;;20.30;70.11
53340;BME280;46212;50.258;19.062;2022-07-23T00:50:54;98556.47;;;20.36;69.96
53340;BME280;46212;50.258;19.062;2022-07-23T00:53:19;98557.75;;;20.35;69.91
53340;BME280;46212;50.258;19.062;2022-07-23T00:55:45;98560.91;;;20.21;70.50
53340;BME280;46212;50.258;19.062;2022-07-23T00:58:10;98561.22;;;20.11;70.63
53340;BME280;46212;50.258;19.062;2022-07-23T01:00:36;98560.28;;;20.03;71.33
53340;BME280;46212;50.258;19.062;2022-07-23T01:03:01;98558.53;;;20.00;70.99
53340;BME280;46212;50.258;19.062;2022-07-23T01:05:26;98564.09;;;20.06;71.67
53340;BME280;46212;50.258;19.062;2022-07-23T01:07:52;98559.81;;;19.99;71.59
53340;BME280;46212;50.258;19.062;2022-07-23T01:10:17;98558.28;;;19.98;71.70
53340;BME280;46212;50.258;19.062;2022-07-23T01:12:59;98563.13;;;19.98;71.96
53340;BME280;46212;50.258;19.062;2022-07-23T01:15:25;98561.59;;;19.97;71.92
53340;BME280;46212;50.258;19.062;2022-07-23T01:17:50;98553.19;;;19.97;72.42
53340;BME280;46212;50.258;19.062;2022-07-23T01:20:16;98565.19;;;19.92;72.29
53340;BME280;46212;50.258;19.062;2022-07-23T01:22:41;98559.84;;;19.94;72.56
53340;BME280;46212;50.258;19.062;2022-07-23T01:25:07;98560.13;;;19.90;73.44
53340;BME280;46212;50.258;19.062;2022-07-23T01:27:32;98555.00;;;19.94;73.28
53340;BME280;46212;50.258;19.062;2022-07-23T01:29:59;98555.03;;;19.89;72.80
53340;BME280;46212;50.258;19.062;2022-07-23T01:32:24;98558.31;;;19.93;73.02
53340;BME280;46212;50.258;19.062;2022-07-23T01:34:49;98556.31;;;19.88;72.89
53340;BME280;46212;50.258;19.062;2022-07-23T01:37:15;98552.53;;;19.80;73.43
53340;BME280;46212;50.258;19.062;2022-07-23T01:39:40;98549.34;;;19.65;74.17
53340;BME280;46212;50.258;19.062;2022-07-23T01:42:05;98546.31;;;19.63;74.53
53340;BME280;46212;50.258;19.062;2022-07-23T01:44:30;98553.13;;;19.67;74.08
53340;BME280;46212;50.258;19.062;2022-07-23T01:46:56;98557.44;;;19.74;74.06
53340;BME280;46212;50.258;19.062;2022-07-23T01:49:21;98563.81;;;19.74;74.54
53340;BME280;46212;50.258;19.062;2022-07-23T01:51:46;98564.59;;;19.69;74.10
53340;BME280;46212;50.258;19.062;2022-07-23T01:54:31;98570.75;;;19.62;75.47
53340;BME280;46212;50.258;19.062;2022-07-23T01:56:57;98564.66;;;19.58;74.98
53340;BME280;46212;50.258;19.062;2022-07-23T01:59:23;98567.75;;;19.49;75.35
53340;BME280;46212;50.258;19.062;2022-07-23T02:01:48;98562.72;;;19.42;75.64
53340;BME280;46212;50.258;19.062;2022-07-23T02:04:15;98567.22;;;19.50;75.92
53340;BME280;46212;50.258;19.062;2022-07-23T02:06:41;98554.53;;;19.49;76.29
53340;BME280;46212;50.258;19.062;2022-07-23T02:09:06;98548.16;;;19.49;75.94
53340;BME280;46212;50.258;19.062;2022-07-23T02:11:31;98549.97;;;19.41;76.60
53340;BME280;46212;50.258;19.062;2022-07-23T02:13:56;98546.41;;;19.35;76.09
53340;BME280;46212;50.258;19.062;2022-07-23T02:16:22;98563.00;;;19.27;76.90
53340;BME280;46212;50.258;19.062;2022-07-23T02:18:47;98567.84;;;19.27;76.68
53340;BME280;46212;50.258;19.062;2022-07-23T02:21:12;98564.03;;;19.24;77.76
53340;BME280;46212;50.258;19.062;2022-07-23T02:23:38;98567.09;;;19.26;77.19
53340;BME280;46212;50.258;19.062;2022-07-23T02:26:03;98566.09;;;19.18;77.27
53340;BME280;46212;50.258;19.062;2022-07-23T02:28:28;98565.53;;;19.25;77.59
53340;BME280;46212;50.258;19.062;2022-07-23T02:30:53;98554.31;;;19.36;77.25
53340;BME280;46212;50.258;19.062;2022-07-23T02:33:18;98556.56;;;19.38;77.03
53340;BME280;46212;50.258;19.062;2022-07-23T02:35:44;98566.28;;;19.31;77.19
53340;BME280;46212;50.258;19.062;2022-07-23T02:38:09;98561.47;;;19.26;77.19
53340;BME280;46212;50.258;19.062;2022-07-23T02:40:34;98564.03;;;19.24;77.42
53340;BME280;46212;50.258;19.062;2022-07-23T02:42:59;98567.88;;;19.21;77.81
53340;BME280;46212;50.258;19.062;2022-07-23T02:45:25;98565.06;;;19.21;77.79
53340;BME280;46212;50.258;19.062;2022-07-23T02:47:50;98562.00;;;19.19;77.81
53340;BME280;46212;50.258;19.062;2022-07-23T02:50:15;98559.22;;;19.19;77.75
53340;BME280;46212;50.258;19.062;2022-07-23T02:52:41;98551.84;;;19.16;78.14
53340;BME280;46212;50.258;19.062;2022-07-23T02:55:06;98554.66;;;19.16;78.09
53340;BME280;46212;50.258;19.062;2022-07-23T02:57:32;98546.78;;;19.15;77.80
53340;BME280;46212;50.258;19.062;2022-07-23T02:59:57;98548.56;;;19.12;78.44
53340;BME280;46212;50.258;19.062;2022-07-23T03:02:23;98542.47;;;19.08;77.97
53340;BME280;46212;50.258;19.062;2022-07-23T03:04:48;98544.81;;;18.98;80.10
53340;BME280;46212;50.258;19.062;2022-07-23T03:07:15;98539.72;;;19.02;79.83
53340;BME280;46212;50.258;19.062;2022-07-23T03:09:40;98538.16;;;19.07;79.47
53340;BME280;46212;50.258;19.062;2022-07-23T03:12:05;98526.94;;;19.07;79.82
53340;BME280;46212;50.258;19.062;2022-07-23T03:14:31;98534.47;;;19.29;79.37
53340;BME280;46212;50.258;19.062;2022-07-23T03:16:56;98530.84;;;19.45;79.33
53340;BME280;46212;50.258;19.062;2022-07-23T03:19:21;98539.94;;;19.62;78.57
53340;BME280;46212;50.258;19.062;2022-07-23T03:21:47;98543.19;;;19.66;78.28
53340;BME280;46212;50.258;19.062;2022-07-23T03:24:12;98547.78;;;19.69;78.04
53340;BME280;46212;50.258;19.062;2022-07-23T03:26:37;98538.63;;;19.69;77.77
53340;BME280;46212;50.258;19.062;2022-07-23T03:29:02;98542.47;;;19.66;77.71
53340;BME280;46212;50.258;19.062;2022-07-23T03:31:29;98543.00;;;19.58;77.82
53340;BME280;46212;50.258;19.062;2022-07-23T03:33:55;98532.59;;;19.53;77.67
53340;BME280;46212;50.258;19.062;2022-07-23T03:36:20;98542.88;;;19.34;79.03
53340;BME280;46212;50.258;19.062;2022-07-23T03:38:45;98536.25;;;19.37;78.93
53340;BME280;46212;50.258;19.062;2022-07-23T03:41:10;98527.28;;;19.44;78.99
53340;BME280;46212;50.258;19.062;2022-07-23T03:43:35;98528.81;;;19.45;78.93
53340;BME280;46212;50.258;19.062;2022-07-23T03:46:01;98534.38;;;19.56;78.62
53340;BME280;46212;50.258;19.062;2022-07-23T03:48:26;98531.84;;;19.53;78.37
53340;BME280;46212;50.258;19.062;2022-07-23T03:50:51;98529.50;;;19.57;78.24
53340;BME280;46212;50.258;19.062;2022-07-23T03:53:16;98536.31;;;19.67;77.54
53340;BME280;46212;50.258;19.062;2022-07-23T03:55:42;98551.88;;;19.68;76.77
53340;BME280;46212;50.258;19.062;2022-07-23T03:58:07;98552.81;;;19.76;76.85
53340;BME280;46212;50.258;19.062;2022-07-23T04:00:32;98555.13;;;19.78;77.21
53340;BME280;46212;50.258;19.062;2022-07-23T04:02:57;98550.22;;;19.84;76.63
53340;BME280;46212;50.258;19.062;2022-07-23T04:05:23;98544.09;;;19.85;76.77
53340;BME280;46212;50.258;19.062;2022-07-23T04:07:48;98548.38;;;19.92;76.85
53340;BME280;46212;50.258;19.062;2022-07-23T04:10:13;98552.31;;;20.13;75.80
53340;BME280;46212;50.258;19.062;2022-07-23T04:12:38;98551.50;;;20.18;75.20
53340;BME280;46212;50.258;19.062;2022-07-23T04:15:04;98539.78;;;20.20;75.19
53340;BME280;46212;50.258;19.062;2022-07-23T04:17:29;98542.56;;;20.20;75.57
53340;BME280;46212;50.258;19.062;2022-07-23T04:19:54;98558.31;;;20.28;74.65
53340;BME280;46212;50.258;19.062;2022-07-23T04:22:20;98551.44;;;20.24;75.15
53340;BME280;46212;50.258;19.062;2022-07-23T04:24:45;98554.19;;;20.35;74.72
53340;BME280;46212;50.258;19.062;2022-07-23T04:27:10;98559.13;;;20.53;73.90
53340;BME280;46212;50.258;19.062;2022-07-23T04:29:35;98552.94;;;20.60;73.68
53340;BME280;46212;50.258;19.062;2022-07-23T04:32:01;98549.66;;;20.80;73.18
53340;BME280;46212;50.258;19.062;2022-07-23T04:34:26;98537.84;;;20.87;72.66
53340;BME280;46212;50.258;19.062;2022-07-23T04:36:52;98543.91;;;20.91;73.28
53340;BME280;46212;50.258;19.062;2022-07-23T04:39:17;98545.75;;;20.89;73.41
53340;BME280;46212;50.258;19.062;2022-07-23T04:41:42;98542.06;;;20.75;73.98
53340;BME280;46212;50.258;19.062;2022-07-23T04:44:07;98541.94;;;20.86;73.94
53340;BME280;46212;50.258;19.062;2022-07-23T04:46:33;98544.97;;;20.88;73.94
53340;BME280;46212;50.258;19.062;2022-07-23T04:48:58;98546.44;;;20.95;73.93
53340;BME280;46212;50.258;19.062;2022-07-23T04:51:23;98536.38;;;21.05;73.66
53340;BME280;46212;50.258;19.062;2022-07-23T04:53:48;98535.44;;;21.21;73.70
53340;BME280;46212;50.258;19.062;2022-07-23T04:56:14;98533.31;;;21.27;73.36
53340;BME280;46212;50.258;19.062;2022-07-23T04:58:39;98546.28;;;21.30;73.12
53340;BME280;46212;50.258;19.062;2022-07-23T05:01:04;98549.03;;;21.36;72.95
53340;BME280;46212;50.258;19.062;2022-07-23T05:03:30;98547.09;;;21.44;72.71
53340;BME280;46212;50.258;19.062;2022-07-23T05:05:55;98541.41;;;21.68;71.67
53340;BME280;46212;50.258;19.062;2022-07-23T05:08:20;98540.25;;;21.95;70.79
53340;BME280;46212;50.258;19.062;2022-07-23T05:10:46;98543.63;;;21.75;71.77
53340;BME280;46212;50.258;19.062;2022-07-23T05:13:11;98544.25;;;21.49;73.11
53340;BME280;46212;50.258;19.062;2022-07-23T05:15:36;98549.47;;;21.58;72.82
53340;BME280;46212;50.258;19.062;2022-07-23T05:18:01;98551.81;;;21.54;73.32
53340;BME280;46212;50.258;19.062;2022-07-23T05:20:27;98543.69;;;21.69;73.00
53340;BME280;46212;50.258;19.062;2022-07-23T05:22:52;98546.88;;;21.79;72.90
53340;BME280;46212;50.258;19.062;2022-07-23T05:25:17;98544.91;;;21.93;72.21
53340;BME280;46212;50.258;19.062;2022-07-23T05:27:44;98546.78;;;22.03;71.86
53340;BME280;46212;50.258;19.062;2022-07-23T05:30:09;98535.59;;;22.16;71.20
53340;BME280;46212;50.258;19.062;2022-07-23T05:32:35;98534.00;;;22.34;70.80
53340;BME280;46212;50.258;19.062;2022-07-23T05:35:01;98536.59;;;22.45;70.26
53340;BME280;46212;50.258;19.062;2022-07-23T05:37:27;98534.34;;;22.44;70.65
53340;BME280;46212;50.258;19.062;2022-07-23T05:39:52;98529.97;;;22.74;69.52
53340;BME280;46212;50.258;19.062;2022-07-23T05:42:17;98541.13;;;23.06;67.97
53340;BME280;46212;50.258;19.062;2022-07-23T05:44:43;98536.66;;;23.24;67.66
53340;BME280;46212;50.258;19.062;2022-07-23T05:47:08;98538.84;;;23.18;67.54
53340;BME280;46212;50.258;19.062;2022-07-23T05:49:33;98532.00;;;23.13;68.10
53340;BME280;46212;50.258;19.062;2022-07-23T05:51:58;98524.06;;;23.25;67.53
53340;BME280;46212;50.258;19.062;2022-07-23T05:54:24;98524.41;;;23.21;68.21
53340;BME280;46212;50.258;19.062;2022-07-23T05:56:49;98516.50;;;23.20;67.77
53340;BME280;46212;50.258;19.062;2022-07-23T05:59:15;98506.63;;;23.26;67.87
53340;BME280;46212;50.258;19.062;2022-07-23T06:01:40;98503.66;;;23.58;66.56
53340;BME280;46212;50.258;19.062;2022-07-23T06:04:05;98508.22;;;23.48;67.36
53340;BME280;46212;50.258;19.062;2022-07-23T06:06:31;98507.00;;;23.57;66.74
53340;BME280;46212;50.258;19.062;2022-07-23T06:08:56;98501.31;;;23.70;66.48
53340;BME280;46212;50.258;19.062;2022-07-23T06:11:21;98503.78;;;23.53;67.11
53340;BME280;46212;50.258;19.062;2022-07-23T06:13:46;98498.97;;;23.61;66.61
53340;BME280;46212;50.258;19.062;2022-07-23T06:16:12;98481.09;;;23.79;66.35
53340;BME280;46212;50.258;19.062;2022-07-23T06:18:37;98492.81;;;24.04;65.26
53340;BME280;46212;50.258;19.062;2022-07-23T06:21:02;98473.44;;;24.21;64.77
53340;BME280;46212;50.258;19.062;2022-07-23T06:23:27;98477.34;;;24.18;65.19
53340;BME280;46212;50.258;19.062;2022-07-23T06:25:52;98479.47;;;24.25;65.19
53340;BME280;46212;50.258;19.062;2022-07-23T06:28:18;98479.41;;;24.17;65.88
53340;BME280;46212;50.258;19.062;2022-07-23T06:30:43;98477.22;;;24.52;63.33
53340;BME280;46212;50.258;19.062;2022-07-23T06:33:08;98480.16;;;24.67;62.22
53340;BME280;46212;50.258;19.062;2022-07-23T06:35:34;98475.72;;;24.79;61.56
53340;BME280;46212;50.258;19.062;2022-07-23T06:37:59;98470.13;;;24.87;61.42
53340;BME280;46212;50.258;19.062;2022-07-23T06:40:25;98466.78;;;24.96;60.91
53340;BME280;46212;50.258;19.062;2022-07-23T06:42:50;98472.09;;;25.07;60.10
53340;BME280;46212;50.258;19.062;2022-07-23T06:45:16;98478.69;;;25.09;60.08
53340;BME280;46212;50.258;19.062;2022-07-23T06:47:41;98484.94;;;25.15;59.90
53340;BME280;46212;50.258;19.062;2022-07-23T06:50:06;98492.84;;;25.09;60.20
53340;BME280;46212;50.258;19.062;2022-07-23T06:52:32;98487.19;;;25.09;60.77
53340;BME280;46212;50.258;19.062;2022-07-23T06:54:57;98487.69;;;25.44;59.22
53340;BME280;46212;50.258;19.062;2022-07-23T06:57:22;98485.75;;;25.23;59.81
53340;BME280;46212;50.258;19.062;2022-07-23T06:59:50;98482.53;;;25.19;59.98
53340;BME280;46212;50.258;19.062;2022-07-23T07:02:15;98480.81;;;25.16;59.80
53340;BME280;46212;50.258;19.062;2022-07-23T07:04:40;98491.59;;;25.25;58.96
53340;BME280;46212;50.258;19.062;2022-07-23T07:07:06;98489.75;;;25.35;58.77
53340;BME280;46212;50.258;19.062;2022-07-23T07:09:31;98490.91;;;25.40;57.85
53340;BME280;46212;50.258;19.062;2022-07-23T07:11:56;98484.91;;;25.51;57.68
53340;BME280;46212;50.258;19.062;2022-07-23T07:14:21;98482.13;;;25.59;58.32
53340;BME280;46212;50.258;19.062;2022-07-23T07:16:47;98481.94;;;25.72;57.33
53340;BME280;46212;50.258;19.062;2022-07-23T07:19:12;98478.38;;;25.79;57.08
53340;BME280;46212;50.258;19.062;2022-07-23T07:21:37;98477.28;;;25.89;56.83
53340;BME280;46212;50.258;19.062;2022-07-23T07:24:02;98472.56;;;26.00;57.03
53340;BME280;46212;50.258;19.062;2022-07-23T07:26:28;98480.13;;;26.12;55.99
53340;BME280;46212;50.258;19.062;2022-07-23T07:28:53;98481.84;;;26.23;54.19
53340;BME280;46212;50.258;19.062;2022-07-23T07:31:18;98478.63;;;26.34;53.25
53340;BME280;46212;50.258;19.062;2022-07-23T07:33:43;98469.94;;;26.47;53.32
53340;BME280;46212;50.258;19.062;2022-07-23T07:36:09;98481.06;;;26.53;52.74
53340;BME280;46212;50.258;19.062;2022-07-23T07:38:34;98488.78;;;26.67;52.60
53340;BME280;46212;50.258;19.062;2022-07-23T07:40:59;98486.31;;;26.79;52.44
53340;BME280;46212;50.258;19.062;2022-07-23T07:43:25;98496.31;;;26.87;52.45
53340;BME280;46212;50.258;19.062;2022-07-23T07:45:50;98488.91;;;27.00;52.39
53340;BME280;46212;50.258;19.062;2022-07-23T07:48:15;98490.97;;;27.07;51.50
53340;BME280;46212;50.258;19.062;2022-07-23T07:50:40;98490.19;;;27.14;51.52
53340;BME280;46212;50.258;19.062;2022-07-23T07:53:06;98504.34;;;27.21;51.82
53340;BME280;46212;50.258;19.062;2022-07-23T07:55:31;98500.13;;;27.37;50.93
53340;BME280;46212;50.258;19.062;2022-07-23T07:57:56;98496.09;;;27.56;50.46
53340;BME280;46212;50.258;19.062;2022-07-23T08:00:22;98500.00;;;27.68;50.08
53340;BME280;46212;50.258;19.062;2022-07-23T08:02:48;98501.69;;;27.71;50.50
53340;BME280;46212;50.258;19.062;2022-07-23T08:05:13;98504.66;;;27.80;50.18
53340;BME280;46212;50.258;19.062;2022-07-23T08:07:39;98494.66;;;27.72;50.47
53340;BME280;46212;50.258;19.062;2022-07-23T08:10:05;98491.41;;;27.75;50.55
53340;BME280;46212;50.258;19.062;2022-07-23T08:12:40;98487.22;;;27.84;50.39
53340;BME280;46212;50.258;19.062;2022-07-23T08:15:06;98477.31;;;27.92;50.42
53340;BME280;46212;50.258;19.062;2022-07-23T08:17:31;98470.91;;;28.17;48.73
53340;BME280;46212;50.258;19.062;2022-07-23T08:19:56;98468.78;;;28.25;47.70
53340;BME280;46212;50.258;19.062;2022-07-23T08:22:21;98465.69;;;28.30;47.68
53340;BME280;46212;50.258;19.062;2022-07-23T08:24:46;98452.91;;;28.39;47.18
53340;BME280;46212;50.258;19.062;2022-07-23T08:27:12;98455.53;;;28.44;48.11
53340;BME280;46212;50.258;19.062;2022-07-23T08:29:37;98454.88;;;28.54;47.77
53340;BME280;46212;50.258;19.062;2022-07-23T08:32:02;98447.78;;;28.62;46.90
53340;BME280;46212;50.258;19.062;2022-07-23T08:34:28;98445.97;;;28.74;46.35
53340;BME280;46212;50.258;19.062;2022-07-23T08:36:53;98442.53;;;28.93;43.92
53340;BME280;46212;50.258;19.062;2022-07-23T08:39:18;98445.84;;;28.99;42.96
53340;BME280;46212;50.258;19.062;2022-07-23T08:41:43;98440.59;;;29.13;42.54
53340;BME280;46212;50.258;19.062;2022-07-23T08:44:08;98450.63;;;29.14;43.41
53340;BME280;46212;50.258;19.062;2022-07-23T08:46:34;98440.66;;;29.22;42.29
53340;BME280;46212;50.258;19.062;2022-07-23T08:48:59;98454.38;;;29.33;42.44
53340;BME280;46212;50.258;19.062;2022-07-23T08:51:25;98452.50;;;29.45;41.97
53340;BME280;46212;50.258;19.062;2022-07-23T08:53:51;98453.34;;;29.65;41.12
53340;BME280;46212;50.258;19.062;2022-07-23T08:56:17;98454.47;;;29.79;39.87
53340;BME280;46212;50.258;19.062;2022-07-23T08:58:42;98452.53;;;29.82;41.02
53340;BME280;46212;50.258;19.062;2022-07-23T09:01:07;98446.78;;;29.89;40.57
53340;BME280;46212;50.258;19.062;2022-07-23T09:03:33;98445.72;;;29.94;41.05
53340;BME280;46212;50.258;19.062;2022-07-23T09:06:00;98457.13;;;29.94;38.86
53340;BME280;46212;50.258;19.062;2022-07-23T09:08:39;98457.13;;;29.94;38.25
53340;BME280;46212;50.258;19.062;2022-07-23T09:11:08;98458.78;;;29.97;38.98
53340;BME280;46212;50.258;19.062;2022-07-23T09:13:41;98453.16;;;30.17;38.38
53340;BME280;46212;50.258;19.062;2022-07-23T09:16:23;98456.63;;;30.25;39.86
53340;BME280;46212;50.258;19.062;2022-07-23T09:18:50;98467.31;;;30.34;38.85
53340;BME280;46212;50.258;19.062;2022-07-23T09:21:18;98459.72;;;30.46;37.65
53340;BME280;46212;50.258;19.062;2022-07-23T09:28:56;98448.94;;;30.83;34.94
53340;BME280;46212;50.258;19.062;2022-07-23T09:31:22;98459.16;;;30.86;34.80
53340;BME280;46212;50.258;19.062;2022-07-23T09:33:48;98457.69;;;31.14;34.84
53340;BME280;46212;50.258;19.062;2022-07-23T09:36:13;98453.91;;;31.30;34.65
53340;BME280;46212;50.258;19.062;2022-07-23T09:38:49;98466.66;;;31.48;32.34
53340;BME280;46212;50.258;19.062;2022-07-23T09:41:15;98460.72;;;31.75;32.20
53340;BME280;46212;50.258;19.062;2022-07-23T09:43:40;98458.97;;;32.01;31.57
53340;BME280;46212;50.258;19.062;2022-07-23T09:48:43;98457.38;;;32.59;30.68
53340;BME280;46212;50.258;19.062;2022-07-23T09:51:09;98457.41;;;32.92;30.60
53340;BME280;46212;50.258;19.062;2022-07-23T09:53:34;98447.53;;;33.26;30.00
53340;BME280;46212;50.258;19.062;2022-07-23T09:55:59;98449.13;;;33.62;29.38
53340;BME280;46212;50.258;19.062;2022-07-23T09:58:25;98449.25;;;33.64;29.61
53340;BME280;46212;50.258;19.062;2022-07-23T10:00:52;98445.81;;;33.89;29.55
53340;BME280;46212;50.258;19.062;2022-07-23T10:03:17;98442.06;;;33.98;28.64
53340;BME280;46212;50.258;19.062;2022-07-23T10:05:44;98448.66;;;33.89;28.44
53340;BME280;46212;50.258;19.062;2022-07-23T10:08:11;98442.41;;;33.81;28.58
53340;BME280;46212;50.258;19.062;2022-07-23T10:10:37;98447.16;;;33.76;28.27
53340;BME280;46212;50.258;19.062;2022-07-23T10:13:04;98438.97;;;34.05;28.21
53340;BME280;46212;50.258;19.062;2022-07-23T10:15:48;98439.72;;;33.50;28.42
53340;BME280;46212;50.258;19.062;2022-07-23T10:18:14;98442.66;;;33.73;28.21
53340;BME280;46212;50.258;19.062;2022-07-23T10:20:40;98439.94;;;33.98;28.65
53340;BME280;46212;50.258;19.062;2022-07-23T10:25:48;98439.72;;;33.38;28.15
53340;BME280;46212;50.258;19.062;2022-07-23T10:40:54;98428.72;;;33.79;28.41
53340;BME280;46212;50.258;19.062;2022-07-23T10:43:21;98435.81;;;33.67;28.96
53340;BME280;46212;50.258;19.062;2022-07-23T10:45:46;98421.47;;;33.55;28.82
53340;BME280;46212;50.258;19.062;2022-07-23T10:50:37;98421.13;;;33.72;29.48
53340;BME280;46212;50.258;19.062;2022-07-23T10:57:59;98426.59;;;33.24;29.66
53340;BME280;46212;50.258;19.062;2022-07-23T11:00:26;98405.59;;;32.77;30.44
53340;BME280;46212;50.258;19.062;2022-07-23T11:02:52;98401.94;;;33.19;29.75
53340;BME280;46212;50.258;19.062;2022-07-23T11:05:19;98414.00;;;32.63;30.95
53340;BME280;46212;50.258;19.062;2022-07-23T11:10:35;98394.66;;;33.06;28.92
53340;BME280;46212;50.258;19.062;2022-07-23T11:16:26;98397.63;;;33.41;29.03
53340;BME280;46212;50.258;19.062;2022-07-23T11:31:52;98390.56;;;34.46;27.58
53340;BME280;46212;50.258;19.062;2022-07-23T11:35:00;98385.38;;;35.05;26.81
53340;BME280;46212;50.258;19.062;2022-07-23T11:37:10;98378.38;;;35.33;26.65
53340;BME280;46212;50.258;19.062;2022-07-23T11:39:36;98370.47;;;35.45;26.98
53340;BME280;46212;50.258;19.062;2022-07-23T11:42:03;98371.94;;;35.46;27.27
53340;BME280;46212;50.258;19.062;2022-07-23T11:44:35;98369.13;;;35.35;27.35
53340;BME280;46212;50.258;19.062;2022-07-23T11:47:02;98364.56;;;35.82;26.46
53340;BME280;46212;50.258;19.062;2022-07-23T11:49:28;98370.94;;;35.81;26.39
53340;BME280;46212;50.258;19.062;2022-07-23T11:52:06;98354.75;;;35.60;26.47
53340;BME280;46212;50.258;19.062;2022-07-23T11:54:33;98352.22;;;35.80;26.17
53340;BME280;46212;50.258;19.062;2022-07-23T11:56:59;98344.53;;;35.84;26.22
53340;BME280;46212;50.258;19.062;2022-07-23T11:59:26;98348.75;;;36.08;25.87
53340;BME280;46212;50.258;19.062;2022-07-23T12:02:02;98342.66;;;36.16;25.49
53340;BME280;46212;50.258;19.062;2022-07-23T12:04:40;98334.81;;;36.46;25.81
53340;BME280;46212;50.258;19.062;2022-07-23T12:09:49;98331.25;;;36.74;24.74
53340;BME280;46212;50.258;19.062;2022-07-23T12:12:15;98339.25;;;36.06;25.37
53340;BME280;46212;50.258;19.062;2022-07-23T12:17:14;98338.59;;;35.94;25.57
53340;BME280;46212;50.258;19.062;2022-07-23T12:19:39;98334.28;;;36.49;24.90
53340;BME280;46212;50.258;19.062;2022-07-23T12:22:05;98333.44;;;36.47;25.02
53340;BME280;46212;50.258;19.062;2022-07-23T12:24:30;98341.78;;;35.72;25.07
53340;BME280;46212;50.258;19.062;2022-07-23T12:27:11;98326.78;;;35.22;25.79
53340;BME280;46212;50.258;19.062;2022-07-23T12:29:37;98324.03;;;34.73;26.03
53340;BME280;46212;50.258;19.062;2022-07-23T12:32:02;98313.25;;;34.48;26.18
53340;BME280;46212;50.258;19.062;2022-07-23T12:34:27;98318.28;;;34.36;26.69
53340;BME280;46212;50.258;19.062;2022-07-23T12:36:53;98311.63;;;33.97;27.60
53340;BME280;46212;50.258;19.062;2022-07-23T12:39:30;98310.41;;;33.77;27.86
53340;BME280;46212;50.258;19.062;2022-07-23T12:41:56;98311.53;;;33.48;28.55
53340;BME280;46212;50.258;19.062;2022-07-23T12:44:21;98299.06;;;33.32;28.60
53340;BME280;46212;50.258;19.062;2022-07-23T12:46:50;98303.00;;;32.71;28.69
53340;BME280;46212;50.258;19.062;2022-07-23T12:49:26;98290.97;;;32.51;29.60
53340;BME280;46212;50.258;19.062;2022-07-23T12:51:51;98291.47;;;32.27;29.93
53340;BME280;46212;50.258;19.062;2022-07-23T12:54:17;98286.47;;;32.16;30.18
53340;BME280;46212;50.258;19.062;2022-07-23T12:56:45;98293.00;;;32.28;29.93
53340;BME280;46212;50.258;19.062;2022-07-23T12:59:11;98291.81;;;32.42;29.95
53340;BME280;46212;50.258;19.062;2022-07-23T13:01:39;98290.38;;;32.53;29.77
53340;BME280;46212;50.258;19.062;2022-07-23T13:04:06;98294.72;;;32.87;29.14
53340;BME280;46212;50.258;19.062;2022-07-23T13:06:33;98284.22;;;33.12;28.44
53340;BME280;46212;50.258;19.062;2022-07-23T13:08:59;98293.59;;;33.83;28.00
53340;BME280;46212;50.258;19.062;2022-07-23T13:11:24;98292.78;;;34.65;26.77
53340;BME280;46212;50.258;19.062;2022-07-23T13:13:50;98296.09;;;34.74;26.83
53340;BME280;46212;50.258;19.062;2022-07-23T13:16:15;98288.88;;;34.36;27.35
53340;BME280;46212;50.258;19.062;2022-07-23T13:18:41;98287.00;;;34.29;27.05
53340;BME280;46212;50.258;19.062;2022-07-23T13:21:06;98288.09;;;33.98;27.63
53340;BME280;46212;50.258;19.062;2022-07-23T13:23:31;98289.22;;;33.82;27.88
53340;BME280;46212;50.258;19.062;2022-07-23T13:25:57;98290.09;;;33.49;28.75
53340;BME280;46212;50.258;19.062;2022-07-23T13:28:22;98280.13;;;33.16;28.87
53340;BME280;46212;50.258;19.062;2022-07-23T13:30:48;98272.88;;;33.03;29.00
53340;BME280;46212;50.258;19.062;2022-07-23T13:33:15;98263.97;;;33.20;28.90
53340;BME280;46212;50.258;19.062;2022-07-23T13:35:40;98255.63;;;33.47;28.63
53340;BME280;46212;50.258;19.062;2022-07-23T13:38:06;98259.06;;;33.81;28.44